TimeEDT,TemperatureF,Dew PointF,Humidity,Sea Level PressureIn,VisibilityMPH,Wind Direction,Wind SpeedMPH,Gust SpeedMPH,PrecipitationIn,Events,Conditions,WindDirDegrees,DateUTC
12:14 AM,69.8,69.8,100,30.24,10.0,Calm,Calm,-,N/A,,Clear,0,2013-08-21 04:14:00
12:34 AM,69.8,69.8,100,30.24,10.0,Calm,Calm,-,N/A,,Clear,0,2013-08-21 04:34:00
12:54 AM,69.8,69.8,100,30.24,10.0,Calm,Calm,-,N/A,,Clear,0,2013-08-21 04:54:00
1:14 AM,69.8,69.8,100,30.24,7.0,Calm,Calm,-,N/A,,Clear,0,2013-08-21 05:14:00
1:34 AM,69.8,69.8,100,30.23,10.0,Calm,Calm,-,N/A,,Scattered Clouds,0,2013-08-21 05:34:00
1:54 AM,69.8,69.8,100,30.22,10.0,Calm,Calm,-,N/A,,Scattered Clouds,0,2013-08-21 05:54:00
2:14 AM,69.8,68.0,94,30.22,10.0,Calm,Calm,-,N/A,,Clear,0,2013-08-21 06:14:00
2:37 AM,69.8,68.0,94,30.22,10.0,Calm,Calm,-,N/A,,Scattered Clouds,0,2013-08-21 06:37:00
2:54 AM,68.0,68.0,100,30.22,5.0,West,10.4,-,N/A,,Scattered Clouds,270,2013-08-21 06:54:00
3:14 AM,68.0,68.0,100,30.21,7.0,Calm,Calm,-,N/A,,Clear,0,2013-08-21 07:14:00
3:34 AM,68.0,66.2,94,30.21,5.0,WNW,4.6,-,N/A,,Scattered Clouds,290,2013-08-21 07:34:00
3:54 AM,68.0,66.2,94,30.21,7.0,West,8.1,-,N/A,,Overcast,270,2013-08-21 07:54:00
4:14 AM,68.0,68.0,100,30.21,10.0,Calm,Calm,-,N/A,,Overcast,0,2013-08-21 08:14:00
4:34 AM,66.2,66.2,100,30.21,7.0,West,10.4,-,N/A,,Mostly Cloudy,270,2013-08-21 08:34:00
4:54 AM,68.0,66.2,94,30.21,10.0,West,5.8,-,N/A,,Scattered Clouds,280,2013-08-21 08:54:00
5:14 AM,66.2,66.2,100,30.21,5.0,West,10.4,-,N/A,,Scattered Clouds,270,2013-08-21 09:14:00
5:34 AM,66.2,66.2,100,30.22,7.0,West,9.2,-,N/A,,Mostly Cloudy,270,2013-08-21 09:34:00
5:54 AM,68.0,66.2,94,30.23,7.0,West,4.6,-,N/A,,Mostly Cloudy,260,2013-08-21 09:54:00
6:14 AM,68.0,66.2,94,30.24,7.0,Calm,Calm,-,N/A,Rain,Rain,0,2013-08-21 10:14:00
6:34 AM,68.0,68.0,100,30.24,4.0,Calm,Calm,-,0.03,Rain,Rain,0,2013-08-21 10:34:00
6:54 AM,68.0,68.0,100,30.23,4.0,North,6.9,-,0.08,Rain,Rain,10,2013-08-21 10:54:00
7:14 AM,68.0,68.0,100,30.22,2.5,NE,5.8,-,0.05,Rain,Rain,40,2013-08-21 11:14:00
7:15 AM,68.0,68.0,100,30.22,2.5,NE,5.8,-,0.05,Rain,Rain,50,2013-08-21 11:15:00
7:35 AM,68.0,67.6,99,30.22,3.0,North,9.2,-,0.09,Rain,Rain,350,2013-08-21 11:35:00
7:55 AM,68.2,68.0,99,30.24,7.0,South,10.4,-,0.09,,Mostly Cloudy,190,2013-08-21 11:55:00
8:15 AM,68.2,68.0,99,30.24,5.0,ESE,3.5,-,N/A,,Scattered Clouds,120,2013-08-21 12:15:00
8:35 AM,68.5,68.4,99,30.25,4.0,Calm,Calm,-,0.01,Rain,Light Rain,0,2013-08-21 12:35:00
8:55 AM,68.9,68.7,99,30.26,4.0,WNW,6.9,-,0.01,,Overcast,300,2013-08-21 12:55:00
9:15 AM,69.8,69.4,99,30.27,7.0,Calm,Calm,-,N/A,,Overcast,0,2013-08-21 13:15:00
9:35 AM,70.9,70.2,98,30.27,10.0,North,3.5,-,N/A,,Scattered Clouds,360,2013-08-21 13:35:00
9:55 AM,72.0,70.3,95,30.27,10.0,Calm,Calm,-,N/A,,Scattered Clouds,0,2013-08-21 13:55:00
10:15 AM,72.3,70.3,93,30.28,10.0,Calm,Calm,-,N/A,,Scattered Clouds,0,2013-08-21 14:15:00
10:35 AM,72.9,70.3,92,30.28,10.0,Calm,Calm,-,N/A,,Mostly Cloudy,0,2013-08-21 14:35:00
10:55 AM,72.9,70.5,92,30.28,10.0,Calm,Calm,-,N/A,,Overcast,0,2013-08-21 14:55:00
11:15 AM,74.1,70.7,89,30.28,10.0,Calm,Calm,-,N/A,,Mostly Cloudy,0,2013-08-21 15:15:00
11:35 AM,74.7,71.1,88,30.28,10.0,Calm,Calm,-,N/A,,Mostly Cloudy,0,2013-08-21 15:35:00
11:55 AM,75.7,70.0,82,30.28,10.0,South,4.6,-,N/A,,Mostly Cloudy,180,2013-08-21 15:55:00
12:15 PM,76.1,70.0,81,30.27,10.0,Calm,Calm,-,N/A,,Scattered Clouds,0,2013-08-21 16:15:00
12:35 PM,77.2,70.7,80,30.27,10.0,Calm,Calm,-,N/A,,Mostly Cloudy,0,2013-08-21 16:35:00
1:15 PM,78.4,71.2,78,30.26,10.0,NW,3.5,-,N/A,,Mostly Cloudy,310,2013-08-21 17:15:00
1:35 PM,78.1,70.9,78,30.25,10.0,Calm,Calm,-,N/A,,Scattered Clouds,0,2013-08-21 17:35:00
1:55 PM,76.5,71.1,83,30.25,10.0,Calm,Calm,-,N/A,,Scattered Clouds,0,2013-08-21 17:55:00
2:15 PM,75.4,71.8,89,30.24,10.0,Calm,Calm,-,N/A,Rain,Light Rain,0,2013-08-21 18:15:00
2:35 PM,74.8,71.6,90,30.23,10.0,Calm,Calm,-,N/A,Rain,Light Rain,0,2013-08-21 18:35:00
2:55 PM,74.8,72.1,91,30.23,10.0,Calm,Calm,-,0.01,Rain,Light Rain,0,2013-08-21 18:55:00
3:15 PM,75.2,72.9,92,30.22,10.0,Calm,Calm,-,N/A,,Mostly Cloudy,0,2013-08-21 19:15:00
3:35 PM,75.2,72.0,90,30.23,10.0,Calm,Calm,-,N/A,,Mostly Cloudy,0,2013-08-21 19:35:00
3:55 PM,75.7,72.0,88,30.23,10.0,South,3.5,-,N/A,,Scattered Clouds,180,2013-08-21 19:55:00
4:15 PM,75.6,71.6,87,30.22,10.0,Calm,Calm,-,N/A,,Scattered Clouds,0,2013-08-21 20:15:00
4:35 PM,75.7,72.1,89,30.22,10.0,Calm,Calm,-,N/A,Rain,Light Rain,0,2013-08-21 20:35:00
4:55 PM,75.6,72.3,90,30.21,10.0,South,3.5,-,N/A,Rain,Light Rain,180,2013-08-21 20:55:00
5:15 PM,75.6,72.3,90,30.21,10.0,Calm,Calm,-,N/A,Rain,Light Rain,0,2013-08-21 21:15:00
5:35 PM,75.6,72.1,89,30.19,10.0,Calm,Calm,-,N/A,Rain,Light Rain,0,2013-08-21 21:35:00
5:55 PM,75.2,71.4,88,30.17,10.0,Calm,Calm,-,N/A,,Mostly Cloudy,0,2013-08-21 21:55:00
6:15 PM,76.6,72.3,86,30.16,10.0,South,3.5,-,N/A,,Mostly Cloudy,170,2013-08-21 22:15:00
6:35 PM,76.5,71.8,85,30.16,10.0,Calm,Calm,-,N/A,,Scattered Clouds,0,2013-08-21 22:35:00
6:55 PM,77.0,71.6,83,30.17,10.0,Calm,Calm,-,N/A,,Clear,0,2013-08-21 22:55:00
7:15 PM,76.6,71.6,84,30.18,10.0,Calm,Calm,-,N/A,,Clear,0,2013-08-21 23:15:00
7:35 PM,75.2,71.8,89,30.18,10.0,Calm,Calm,-,N/A,,Clear,0,2013-08-21 23:35:00
7:55 PM,73.8,72.0,94,30.17,10.0,Calm,Calm,-,N/A,,Clear,0,2013-08-21 23:55:00
8:15 PM,73.8,71.8,93,30.16,10.0,Calm,Calm,-,N/A,,Clear,0,2013-08-22 00:15:00
8:34 PM,73.4,71.6,94,30.17,10.0,Calm,Calm,-,N/A,,Clear,0,2013-08-22 00:34:00
8:54 PM,71.6,71.6,100,30.17,10.0,Calm,Calm,-,N/A,,Clear,0,2013-08-22 00:54:00
9:14 PM,73.4,71.6,94,30.18,10.0,Calm,Calm,-,N/A,,Clear,0,2013-08-22 01:14:00
9:34 PM,71.6,71.6,100,30.19,10.0,Calm,Calm,-,N/A,,Clear,0,2013-08-22 01:34:00
9:54 PM,71.6,71.6,100,30.21,7.0,Calm,Calm,-,N/A,,Clear,0,2013-08-22 01:54:00
10:14 PM,71.6,71.6,100,30.21,10.0,Calm,Calm,-,N/A,,Clear,0,2013-08-22 02:14:00
10:34 PM,71.6,71.6,100,30.21,10.0,Calm,Calm,-,N/A,,Clear,0,2013-08-22 02:34:00
10:54 PM,69.8,69.8,100,30.21,7.0,Calm,Calm,-,N/A,,Clear,0,2013-08-22 02:54:00
11:14 PM,69.8,69.8,100,30.21,7.0,Calm,Calm,-,N/A,,Scattered Clouds,0,2013-08-22 03:14:00
11:34 PM,69.8,69.8,100,30.21,0.8,East,4.6,-,N/A,,Overcast,100,2013-08-22 03:34:00
11:54 PM,69.8,69.8,100,30.19,0.5,ESE,3.5,-,N/A,Fog,Fog,110,2013-08-22 03:54:00